Time;durP1;ratioP1;P1;durP2;ratioP2;P2;SDS_P1;SDS_P2;PMS_P1;PMS_P2;Temp;Humidity;BMP_temperature;BMP_pressure;BME280_temperature;BME280_humidity;BME280_pressure;Samples;Min_cycle;Max_cycle;Signal;HPM_P1;HPM_P2
2022/03/10 00:02:19;;;;;;;22.80;11.35;;;;;;;5.13;44.26;100400.09;4456465;32;32295;-76
2022/03/10 00:04:53;;;;;;;20.20;11.40;;;;;;;4.92;44.69;100396.84;4456658;32;35136;-76
2022/03/10 00:07:39;;;;;;;20.17;11.12;;;;;;;4.82;44.66;100405.06;4457094;32;33399;-76
2022/03/10 00:10:15;;;;;;;31.67;18.23;;;;;;;5.04;44.19;100405.63;4457683;32;33508;-76
2022/03/10 00:12:54;;;;;;;31.60;19.42;;;;;;;4.90;44.62;100410.59;4468556;32;33675;-76
2022/03/10 00:15:25;;;;;;;31.98;18.73;;;;;;;4.99;44.50;100406.09;4456222;32;33994;-76
2022/03/10 00:17:57;;;;;;;22.00;13.95;;;;;;;4.95;44.42;100410.13;4455851;32;33957;-76
2022/03/10 00:20:31;;;;;;;23.70;14.60;;;;;;;4.90;44.61;100409.75;4469162;32;32525;-76
2022/03/10 00:23:02;;;;;;;21.35;13.20;;;;;;;4.83;44.93;100409.50;4469322;32;33717;-76
2022/03/10 00:25:37;;;;;;;23.87;13.95;;;;;;;4.84;44.58;100410.37;4469326;32;35128;-76
2022/03/10 00:28:05;;;;;;;24.27;13.07;;;;;;;4.80;44.77;100417.13;4456271;32;32415;-77
2022/03/10 00:30:36;;;;;;;20.08;12.32;;;;;;;4.82;44.89;100417.81;4456691;32;31783;-76
2022/03/10 00:33:07;;;;;;;24.52;12.57;;;;;;;4.83;44.69;100420.37;4456737;32;32995;-75
2022/03/10 00:35:43;;;;;;;20.98;11.82;;;;;;;4.64;44.96;100431.38;4456874;32;34265;-76
2022/03/10 00:38:14;;;;;;;21.75;11.73;;;;;;;4.66;44.72;100434.81;4469171;32;33677;-76
2022/03/10 00:40:47;;;;;;;23.40;12.93;;;;;;;4.66;44.66;100433.94;4456857;32;31878;-76
2022/03/10 00:43:18;;;;;;;25.85;14.75;;;;;;;4.59;45.17;100439.12;4456664;32;34538;-76
2022/03/10 00:45:49;;;;;;;27.67;15.70;;;;;;;4.43;45.52;100441.69;4456391;32;33009;-76
2022/03/10 00:48:25;;;;;;;24.20;13.80;;;;;;;4.43;45.17;100458.00;4456482;32;33329;-76
2022/03/10 00:51:05;;;;;;;23.25;12.82;;;;;;;4.44;45.15;100446.13;4469411;32;33860;-76
2022/03/10 00:53:42;;;;;;;66.78;38.78;;;;;;;4.32;45.50;100452.75;4468957;32;34536;-76
2022/03/10 00:56:18;;;;;;;34.65;19.15;;;;;;;4.35;45.42;100456.03;4469427;32;33377;-76
2022/03/10 00:58:48;;;;;;;22.87;12.73;;;;;;;4.40;45.43;100471.88;4469266;32;33852;-76
2022/03/10 01:01:28;;;;;;;21.85;12.37;;;;;;;4.35;46.30;100474.19;4456490;32;32177;-76
2022/03/10 01:03:57;;;;;;;25.27;11.52;;;;;;;4.30;45.79;100478.22;4456353;32;32315;-75
2022/03/10 01:06:27;;;;;;;21.48;10.82;;;;;;;4.44;45.35;100484.16;4456249;32;34942;-76
2022/03/10 01:08:57;;;;;;;16.73;9.07;;;;;;;4.51;45.02;100485.28;4468762;32;34654;-76
2022/03/10 01:11:33;;;;;;;18.30;9.73;;;;;;;4.36;45.33;100492.22;4456497;32;33525;-77
2022/03/10 01:14:10;;;;;;;18.40;9.50;;;;;;;4.17;45.64;100490.41;4443498;32;33173;-76
2022/03/10 01:16:43;;;;;;;20.88;10.55;;;;;;;4.11;45.42;100494.59;4468866;32;34302;-76
2022/03/10 01:19:17;;;;;;;23.70;12.07;;;;;;;4.40;44.68;100501.78;4456600;32;33459;-76
2022/03/10 01:21:48;;;;;;;26.83;14.00;;;;;;;4.06;45.63;100502.31;4456237;32;32006;-76
2022/03/10 01:24:15;;;;;;;27.33;13.40;;;;;;;4.28;45.24;100495.69;4468756;32;33445;-76
2022/03/10 01:26:45;;;;;;;24.02;12.52;;;;;;;4.27;44.98;100493.97;4468847;32;34410;-76
2022/03/10 01:29:17;;;;;;;27.55;16.48;;;;;;;4.24;45.20;100492.41;4455759;32;32461;-76
2022/03/10 01:31:48;;;;;;;28.45;14.75;;;;;;;4.16;45.47;100497.72;4468904;32;34508;-76
2022/03/10 01:34:22;;;;;;;21.70;12.25;;;;;;;4.26;45.17;100493.09;4456328;32;34496;-76
2022/03/10 01:36:54;;;;;;;21.08;11.95;;;;;;;4.25;45.23;100488.69;4468743;32;34343;-76
2022/03/10 01:39:25;;;;;;;24.12;13.20;;;;;;;4.28;45.24;100495.69;4468523;32;34029;-76
2022/03/10 01:41:58;;;;;;;26.02;14.50;;;;;;;4.22;45.41;100501.69;4455462;32;33393;-76
2022/03/10 01:44:31;;;;;;;30.67;14.05;;;;;;;4.20;45.63;100507.28;4468879;32;33694;-76
2022/03/10 01:47:02;;;;;;;24.55;12.30;;;;;;;4.08;45.80;100511.19;4469098;32;34591;-76
2022/03/10 01:49:37;;;;;;;20.48;11.27;;;;;;;3.98;46.14;100507.63;4469837;32;33870;-76
2022/03/10 01:52:06;;;;;;;21.60;11.23;;;;;;;3.98;46.53;100516.62;4455886;32;34414;-76
2022/03/10 01:54:36;;;;;;;21.50;11.43;;;;;;;3.85;47.50;100521.53;4468597;32;34577;-76
2022/03/10 01:57:08;;;;;;;20.95;10.88;;;;;;;3.93;47.67;100521.63;4455994;32;34444;-76
2022/03/10 01:59:40;;;;;;;23.48;11.55;;;;;;;3.93;47.65;100518.06;4455911;32;33154;-76
2022/03/10 02:02:11;;;;;;;21.60;12.90;;;;;;;3.94;47.72;100527.94;4468217;32;33822;-76
2022/03/10 02:04:44;;;;;;;25.88;12.82;;;;;;;3.89;47.84;100522.13;4468578;32;33712;-76
2022/03/10 02:10:17;;;;;;;21.60;12.00;;;;;;;3.72;48.55;100525.56;4456524;32;32365;-76
2022/03/10 02:12:53;;;;;;;27.33;13.38;;;;;;;3.79;48.66;100521.25;4457669;32;32057;-76
2022/03/10 02:18:11;;;;;;;23.67;12.80;;;;;;;4.03;48.58;100543.34;4458138;32;33994;-76
2022/03/10 02:20:40;;;;;;;22.45;10.90;;;;;;;4.05;48.34;100538.63;4471745;32;34474;-75
2022/03/10 02:23:10;;;;;;;21.37;11.80;;;;;;;3.90;48.78;100542.84;4473798;32;33941;-75
2022/03/10 02:25:43;;;;;;;24.80;11.52;;;;;;;3.77;49.90;100543.13;4474437;32;33832;-75
2022/03/10 02:28:17;;;;;;;19.10;11.82;;;;;;;3.79;50.33;100554.69;4459402;32;35072;-74
2022/03/10 02:30:54;;;;;;;21.25;11.73;;;;;;;4.07;49.49;100550.19;4472688;32;35113;-76
2022/03/10 02:33:28;;;;;;;23.10;12.70;;;;;;;4.05;49.47;100557.66;4472691;32;33863;-76
2022/03/10 02:35:58;;;;;;;23.27;12.45;;;;;;;4.04;49.31;100566.78;4457691;32;33340;-76
2022/03/10 02:38:26;;;;;;;27.45;14.18;;;;;;;4.06;49.30;100562.06;4468099;32;34451;-77
2022/03/10 02:40:57;;;;;;;27.92;12.20;;;;;;;4.05;49.37;100562.22;4456654;32;34616;-76
2022/03/10 02:43:33;;;;;;;21.70;12.23;;;;;;;3.92;50.10;100565.22;4470126;32;33185;-76
2022/03/10 02:46:04;;;;;;;23.92;12.60;;;;;;;3.98;50.02;100567.38;4470048;32;34643;-76
2022/03/10 02:48:41;;;;;;;23.33;13.60;;;;;;;4.06;50.42;100567.50;4444775;32;32973;-77
2022/03/10 02:51:09;;;;;;;20.80;11.48;;;;;;;4.08;50.19;100567.34;4457508;32;32533;-76
2022/03/10 02:53:45;;;;;;;26.52;13.38;;;;;;;4.22;49.86;100570.47;4469816;32;33459;-77
2022/03/10 02:56:18;;;;;;;25.52;12.52;;;;;;;4.13;50.42;100565.91;4456979;32;33558;-76
2022/03/10 02:58:45;;;;;;;24.45;13.00;;;;;;;4.04;50.58;100568.66;4457196;32;34164;-76
2022/03/10 03:01:19;;;;;;;26.62;13.00;;;;;;;4.30;49.98;100576.03;4469324;32;34778;-76
2022/03/10 03:03:51;;;;;;;26.70;15.55;;;;;;;4.24;50.28;100582.06;4470112;32;33500;-76
2022/03/10 03:06:25;;;;;;;29.87;13.68;;;;;;;4.32;50.15;100583.19;4456980;32;32376;-76
2022/03/10 03:08:55;;;;;;;26.60;15.05;;;;;;;4.34;50.09;100587.47;4457310;32;32790;-76
2022/03/10 03:11:25;;;;;;;27.02;14.10;;;;;;;4.15;50.42;100585.66;4469890;32;34159;-77
2022/03/10 03:13:56;;;;;;;27.20;14.00;;;;;;;4.36;49.81;100595.47;4456683;32;31920;-77
2022/03/10 03:16:27;;;;;;;28.12;14.87;;;;;;;4.34;50.08;100592.03;4457043;32;33822;-76
2022/03/10 03:18:57;;;;;;;27.02;15.20;;;;;;;4.34;49.99;100601.06;4469794;32;34337;-76
2022/03/10 03:21:27;;;;;;;27.05;15.55;;;;;;;4.44;49.84;100603.75;4470127;32;33743;-77
2022/03/10 03:24:01;;;;;;;35.15;19.55;;;;;;;4.51;49.58;100604.88;4470162;32;34474;-77
2022/03/10 03:26:31;;;;;;;47.15;26.67;;;;;;;4.49;49.43;100596.00;4457222;32;34452;-77
2022/03/10 03:29:04;;;;;;;31.23;17.20;;;;;;;4.52;49.30;100596.56;4456892;32;33372;-76
2022/03/10 03:31:40;;;;;;;65.95;41.45;;;;;;;4.41;49.67;100606.75;4456864;32;34751;-76
2022/03/10 03:34:10;;;;;;;54.20;32.05;;;;;;;4.28;50.08;100610.66;4469996;32;34234;-76
2022/03/10 03:36:45;;;;;;;34.55;18.17;;;;;;;4.58;49.35;100614.97;4469662;32;33775;-76
2022/03/10 03:39:16;;;;;;;28.35;14.38;;;;;;;4.61;49.17;100624.69;4469650;32;35363;-76
2022/03/10 03:41:52;;;;;;;26.77;13.35;;;;;;;4.57;49.38;100631.44;4469686;32;34034;-76
2022/03/10 03:44:24;;;;;;;30.55;13.75;;;;;;;4.62;49.12;100635.44;4457309;32;33693;-76
2022/03/10 03:46:57;;;;;;;29.95;14.80;;;;;;;4.65;48.91;100626.13;4469754;32;34808;-76
2022/03/10 03:49:33;;;;;;;25.20;13.60;;;;;;;4.67;48.89;100640.44;4469548;32;34362;-77
2022/03/10 03:52:01;;;;;;;27.80;13.10;;;;;;;4.72;48.89;100645.41;4469556;32;32663;-76
2022/03/10 03:54:37;;;;;;;27.08;13.88;;;;;;;4.68;48.97;100649.44;4443885;32;33126;-76
2022/03/10 03:57:07;;;;;;;24.87;13.00;;;;;;;4.68;49.09;100666.59;4469343;32;34450;-76
2022/03/10 03:59:38;;;;;;;24.05;13.18;;;;;;;4.62;49.29;100661.75;4456872;32;34459;-76
2022/03/10 04:02:09;;;;;;;25.02;14.00;;;;;;;4.60;49.37;100663.78;4469539;32;34827;-76
2022/03/10 04:04:37;;;;;;;27.42;14.68;;;;;;;4.68;49.72;100661.16;4456842;32;33586;-76
2022/03/10 04:07:05;;;;;;;28.62;14.90;;;;;;;4.54;50.55;100669.81;4469785;32;34428;-76
2022/03/10 04:09:35;;;;;;;27.02;14.13;;;;;;;4.79;49.86;100671.03;4456547;32;35330;-76
2022/03/10 04:12:03;;;;;;;31.65;16.92;;;;;;;4.76;50.04;100674.87;4469240;32;34029;-76
2022/03/10 04:14:33;;;;;;;30.15;16.40;;;;;;;4.67;50.49;100673.06;4443635;32;32936;-76
2022/03/10 04:17:01;;;;;;;27.20;14.40;;;;;;;4.66;50.52;100675.91;4469152;32;34198;-76
2022/03/10 04:19:29;;;;;;;27.23;14.87;;;;;;;4.87;50.15;100688.31;4469332;32;33302;-76
2022/03/10 04:21:59;;;;;;;26.52;13.60;;;;;;;4.74;50.51;100685.06;4456355;32;34219;-76
2022/03/10 04:24:29;;;;;;;25.00;13.70;;;;;;;4.84;50.38;100688.59;4469458;32;33878;-76
2022/03/10 04:27:01;;;;;;;26.40;14.32;;;;;;;4.90;50.41;100688.03;4469398;32;33737;-76
2022/03/10 04:29:29;;;;;;;26.33;14.40;;;;;;;4.90;50.68;100696.19;4456945;32;34320;-77
2022/03/10 04:32:00;;;;;;;30.98;14.75;;;;;;;5.03;50.54;100697.72;4456417;32;34585;-76
2022/03/10 04:34:30;;;;;;;25.42;14.43;;;;;;;4.95;50.72;100691.16;4456835;32;33650;-76
2022/03/10 04:37:02;;;;;;;22.17;12.55;;;;;;;5.06;50.54;100683.81;4469319;32;33639;-77
2022/03/10 04:39:38;;;;;;;22.00;11.70;;;;;;;5.00;51.96;100698.00;4456425;32;32584;-76
2022/03/10 04:42:10;;;;;;;20.65;11.00;;;;;;;5.04;52.84;100699.44;4456564;32;32544;-76
2022/03/10 04:44:39;;;;;;;20.50;11.70;;;;;;;4.72;54.97;100708.81;4456497;32;34323;-76
2022/03/10 04:47:10;;;;;;;22.45;13.93;;;;;;;4.77;55.03;100720.12;4456429;32;34200;-76
2022/03/10 04:49:38;;;;;;;26.35;13.77;;;;;;;5.04;54.39;100710.31;4456326;32;34604;-75
2022/03/10 04:52:10;;;;;;;22.30;12.70;;;;;;;4.99;54.55;100723.50;4456763;32;33551;-76
2022/03/10 04:54:37;;;;;;;21.35;12.55;;;;;;;5.23;55.26;100729.25;4457006;32;31997;-79
2022/03/10 04:57:10;;;;;;;25.08;12.10;;;;;;;5.22;54.54;100731.13;4456490;32;33568;-77
2022/03/10 04:59:49;;;;;;;25.50;12.43;;;;;;;5.43;53.68;100738.22;4456831;32;34528;-76
2022/03/10 05:02:20;;;;;;;25.62;12.77;;;;;;;5.47;53.35;100740.47;4455464;32;34695;-75
2022/03/10 05:04:48;;;;;;;26.42;12.93;;;;;;;5.63;52.89;100739.84;4469246;32;34690;-75
2022/03/10 05:07:18;;;;;;;31.20;14.27;;;;;;;5.60;53.09;100746.44;4467909;32;34532;-76
2022/03/10 05:09:48;;;;;;;20.30;11.98;;;;;;;5.68;52.80;100753.00;4456428;32;34312;-73
2022/03/10 05:12:16;;;;;;;23.35;11.85;;;;;;;5.31;53.13;100748.44;4469100;32;32626;-78
2022/03/10 05:14:44;;;;;;;20.58;10.50;;;;;;;6.11;61.88;100755.03;4469083;32;33715;-78
2022/03/10 05:17:15;;;;;;;18.90;10.40;;;;;;;5.20;52.81;100775.84;4469169;32;33525;-79
2022/03/10 05:19:43;;;;;;;19.45;10.48;;;;;;;5.59;51.47;100771.09;4469426;32;34170;-79
2022/03/10 05:22:11;;;;;;;19.77;9.93;;;;;;;5.74;51.02;100772.31;4456642;32;34137;-79
2022/03/10 05:24:38;;;;;;;22.87;10.35;;;;;;;5.83;50.23;100773.28;4456506;32;34345;-79
2022/03/10 05:27:06;;;;;;;18.90;9.75;;;;;;;5.79;49.97;100772.72;4456844;32;33839;-77
2022/03/10 05:29:35;;;;;;;20.20;10.27;;;;;;;5.76;50.11;100780.34;4444066;32;32869;-78
2022/03/10 05:32:05;;;;;;;20.27;10.50;;;;;;;5.88;49.91;100790.00;4456535;32;33479;-79
2022/03/10 05:34:33;;;;;;;16.92;9.50;;;;;;;6.07;49.36;100781.75;4444465;32;32139;-78
2022/03/10 05:37:01;;;;;;;30.05;13.75;;;;;;;6.07;53.04;100779.03;4464012;32;33397;-78
2022/03/10 05:39:28;;;;;;;19.40;9.32;;;;;;;6.05;48.44;100791.94;4453601;32;34331;-79
2022/03/10 05:41:57;;;;;;;14.45;7.25;;;;;;;6.01;46.51;100789.66;4454001;32;34759;-78
2022/03/10 05:44:43;;;;;;;13.73;7.03;;;;;;;5.80;45.09;100789.91;4454510;32;33955;-79
2022/03/10 05:47:11;;;;;;;9.60;5.40;;;;;;;5.78;44.04;100789.22;4454429;32;34719;-79
2022/03/10 05:49:39;;;;;;;17.33;10.18;;;;;;;5.74;43.42;100795.97;4440988;32;34313;-79
2022/03/10 05:52:06;;;;;;;38.22;26.50;;;;;;;5.54;44.12;100801.50;4448223;32;32651;-78
2022/03/10 05:54:36;;;;;;;36.88;19.90;;;;;;;5.40;43.35;100804.69;4447719;32;33589;-80
2022/03/10 05:57:06;;;;;;;253.02;114.18;;;;;;;5.46;43.79;100804.09;4450061;32;32023;-79
2022/03/10 05:59:34;;;;;;;53.67;28.92;;;;;;;5.79;45.80;100805.41;4444668;32;34464;-79
2022/03/10 06:02:02;;;;;;;59.78;38.33;;;;;;;5.81;41.68;100802.53;4450656;32;34438;-79
2022/03/10 06:04:30;;;;;;;35.53;22.73;;;;;;;5.42;41.84;100818.16;4450129;32;33413;-79
2022/03/10 06:06:57;;;;;;;13.05;9.40;;;;;;;4.86;42.17;100816.28;4442666;32;34499;-79
2022/03/10 06:09:25;;;;;;;10.75;6.32;;;;;;;4.98;42.19;100826.03;4460187;32;34335;-79
2022/03/10 06:11:52;;;;;;;10.32;5.72;;;;;;;5.21;42.23;100815.63;4460661;32;34610;-79
2022/03/10 06:14:20;;;;;;;9.70;4.85;;;;;;;4.87;42.07;100820.72;4438744;32;33467;-79
2022/03/10 06:16:51;;;;;;;23.73;11.65;;;;;;;4.58;42.10;100829.75;4439459;32;32195;-78
2022/03/10 06:19:24;;;;;;;35.13;17.23;;;;;;;4.64;42.02;100839.19;4439466;32;33419;-79
2022/03/10 06:21:51;;;;;;;13.05;6.10;;;;;;;4.75;42.40;100841.78;4438276;32;33408;-78
2022/03/10 06:24:19;;;;;;;10.35;4.32;;;;;;;4.82;41.77;100847.50;4451910;32;33480;-79
2022/03/10 06:26:47;;;;;;;10.75;4.25;;;;;;;4.66;41.75;100847.22;4440442;32;32437;-78
2022/03/10 06:29:14;;;;;;;8.93;4.30;;;;;;;5.11;41.46;100858.38;4444198;32;33934;-79
2022/03/10 06:31:42;;;;;;;19.83;11.27;;;;;;;4.70;41.97;100860.37;4440137;32;34109;-78
2022/03/10 06:34:10;;;;;;;12.13;6.00;;;;;;;4.92;42.49;100856.50;4437881;32;32134;-78
2022/03/10 06:36:38;;;;;;;11.43;4.75;;;;;;;4.77;42.20;100857.94;4440941;32;33025;-78
2022/03/10 06:39:06;;;;;;;9.60;4.07;;;;;;;3.91;43.21;100864.94;4440341;32;34294;-79
2022/03/10 06:41:33;;;;;;;11.90;4.55;;;;;;;4.35;42.24;100865.50;4451862;32;33901;-78
2022/03/10 06:44:01;;;;;;;8.65;4.00;;;;;;;4.50;42.13;100881.28;4439104;32;34291;-79
2022/03/10 06:46:29;;;;;;;9.85;4.05;;;;;;;4.41;42.19;100876.69;4452076;32;34356;-78
2022/03/10 06:48:57;;;;;;;8.10;4.18;;;;;;;4.28;42.04;100879.66;4452334;32;34935;-78
2022/03/10 06:51:24;;;;;;;9.75;4.00;;;;;;;4.22;42.30;100877.50;4427065;32;33522;-78
2022/03/10 06:53:52;;;;;;;7.80;3.78;;;;;;;4.39;41.83;100885.97;4439810;32;34146;-78
2022/03/10 06:56:25;;;;;;;10.88;4.40;;;;;;;4.35;41.70;100879.97;4440374;32;34537;-79
2022/03/10 06:58:53;;;;;;;9.10;4.18;;;;;;;4.38;41.51;100881.53;4439813;32;34619;-78
2022/03/10 07:01:20;;;;;;;12.00;5.40;;;;;;;4.81;40.86;100892.88;4439462;32;32529;-79
2022/03/10 07:03:48;;;;;;;10.68;5.35;;;;;;;4.78;40.91;100895.88;4439562;32;33595;-75
2022/03/10 07:06:16;;;;;;;11.00;5.65;;;;;;;4.81;42.40;100903.75;4439534;32;33785;-79
2022/03/10 07:08:44;;;;;;;13.55;4.93;;;;;;;5.27;41.46;100911.16;4439545;32;34984;-78
2022/03/10 07:11:11;;;;;;;11.50;5.10;;;;;;;5.09;40.60;100903.91;4452044;32;33957;-79
2022/03/10 07:13:39;;;;;;;26.87;11.95;;;;;;;5.20;40.33;100904.59;4439295;32;32861;-78
2022/03/10 07:16:06;;;;;;;13.68;6.70;;;;;;;5.38;40.58;100912.88;4439357;32;33916;-78
2022/03/10 07:18:34;;;;;;;10.13;5.00;;;;;;;5.12;40.30;100909.91;4439299;32;32989;-79
2022/03/10 07:21:04;;;;;;;8.25;3.97;;;;;;;5.19;39.85;100915.66;4439425;32;34868;-77
2022/03/10 07:23:34;;;;;;;10.60;4.40;;;;;;;4.94;39.74;100917.06;4439163;32;31920;-79
2022/03/10 07:26:01;;;;;;;11.68;4.87;;;;;;;5.11;39.79;100926.38;4440015;32;32240;-78
2022/03/10 07:28:31;;;;;;;8.75;4.28;;;;;;;5.11;40.01;100920.94;4454336;32;34417;-78
2022/03/10 07:30:58;;;;;;;10.25;5.20;;;;;;;5.07;39.83;100922.22;4454182;32;34079;-79
2022/03/10 07:33:25;;;;;;;13.05;5.68;;;;;;;5.12;40.10;100931.69;4441342;32;34403;-79
2022/03/10 07:35:53;;;;;;;10.25;4.82;;;;;;;4.85;40.87;100924.22;4428974;32;32130;-78
2022/03/10 07:38:21;;;;;;;9.20;4.30;;;;;;;5.26;39.72;100925.78;4428941;32;34348;-78
2022/03/10 07:40:50;;;;;;;30.50;14.95;;;;;;;5.18;40.29;100922.09;4441372;32;34524;-78
2022/03/10 07:43:18;;;;;;;11.40;4.93;;;;;;;5.27;40.61;100924.78;4454113;32;32039;-78
2022/03/10 07:45:46;;;;;;;11.65;5.40;;;;;;;5.35;39.66;100923.19;4456721;32;34031;-78
2022/03/10 07:48:17;;;;;;;11.05;4.85;;;;;;;5.80;39.09;100926.97;4444612;32;35203;-79
2022/03/10 07:50:45;;;;;;;11.30;5.45;;;;;;;6.41;38.15;100923.72;4444083;32;33943;-79
2022/03/10 07:53:15;;;;;;;9.82;4.60;;;;;;;6.40;37.60;100923.88;4444809;32;33319;-80
2022/03/10 07:55:45;;;;;;;9.32;4.53;;;;;;;6.39;36.94;100927.63;4443807;32;33744;-80
2022/03/10 07:58:23;;;;;;;11.68;5.07;;;;;;;7.04;35.99;100923.72;4444191;32;32360;-78
2022/03/10 08:00:57;;;;;;;9.55;4.30;;;;;;;7.28;35.22;100926.62;4444193;32;34789;-79
2022/03/10 08:03:32;;;;;;;9.05;4.87;;;;;;;8.27;34.74;100913.44;4428717;32;33019;-80
2022/03/10 08:06:00;;;;;;;23.85;12.95;;;;;;;8.42;33.36;100915.59;4453921;32;34522;-80
2022/03/10 08:08:28;;;;;;;26.92;12.40;;;;;;;8.46;32.98;100920.53;4440993;32;33073;-77
2022/03/10 08:10:56;;;;;;;13.82;5.57;;;;;;;8.80;32.69;100931.44;4441023;32;34095;-78
2022/03/10 08:13:26;;;;;;;10.52;4.78;;;;;;;8.85;32.12;100926.31;4441196;32;33481;-78
2022/03/10 08:15:54;;;;;;;12.70;4.82;;;;;;;8.77;31.60;100928.16;4454207;32;33519;-77
2022/03/10 08:18:23;;;;;;;9.70;4.72;;;;;;;8.95;31.13;100920.69;4428726;32;32719;-78
2022/03/10 08:20:51;;;;;;;12.48;4.30;;;;;;;9.19;31.08;100931.66;4442676;32;32741;-78
2022/03/10 08:23:19;;;;;;;9.63;4.90;;;;;;;9.53;31.31;100925.16;4444359;32;33695;-78
2022/03/10 08:25:46;;;;;;;9.88;4.82;;;;;;;9.78;30.45;100929.56;4456971;32;33776;-77
2022/03/10 08:28:16;;;;;;;9.90;4.60;;;;;;;10.09;30.39;100929.69;4444016;32;33985;-79
2022/03/10 08:30:44;;;;;;;8.77;4.03;;;;;;;9.96;29.70;100929.38;4456973;32;34650;-78
2022/03/10 08:33:14;;;;;;;11.43;4.45;;;;;;;9.54;29.17;100929.63;4444507;32;33777;-78
2022/03/10 08:35:42;;;;;;;11.40;5.07;;;;;;;9.81;29.39;100931.97;4456669;32;34615;-84
2022/03/10 08:38:11;;;;;;;10.02;5.35;;;;;;;10.11;28.87;100927.63;4430224;32;33776;-78
2022/03/10 08:40:38;;;;;;;10.18;4.37;;;;;;;10.07;29.19;100918.03;4441921;32;34087;-78
2022/03/10 08:43:08;;;;;;;7.57;4.30;;;;;;;10.18;28.40;100919.56;4455940;32;33479;-78
2022/03/10 08:45:37;;;;;;;9.43;4.95;;;;;;;10.03;28.22;100916.69;4443328;32;33129;-78
2022/03/10 08:48:08;;;;;;;16.62;8.95;;;;;;;10.56;28.65;100915.13;4443819;32;34801;-78
2022/03/10 08:50:36;;;;;;;17.12;8.18;;;;;;;10.71;28.06;100907.84;4443615;32;34697;-78
2022/03/10 08:53:03;;;;;;;11.23;5.72;;;;;;;10.37;29.14;100915.56;4443647;32;34237;-78
2022/03/10 08:55:34;;;;;;;9.93;5.03;;;;;;;10.60;27.81;100910.97;4444605;32;34417;-79
2022/03/10 08:58:03;;;;;;;11.45;4.87;;;;;;;10.64;27.65;100917.81;4443285;32;34689;-78
2022/03/10 09:00:31;;;;;;;11.02;4.85;;;;;;;10.63;27.66;100921.59;4443649;32;34102;-78
2022/03/10 09:03:01;;;;;;;9.73;4.55;;;;;;;10.45;27.54;100912.78;4443128;32;31924;-78
2022/03/10 09:05:34;;;;;;;9.30;5.25;;;;;;;10.79;27.09;100921.53;4443611;32;32198;-78
2022/03/10 09:08:02;;;;;;;8.63;3.87;;;;;;;10.45;27.65;100924.59;4443085;32;34340;-78
2022/03/10 09:10:30;;;;;;;6.37;3.70;;;;;;;10.56;24.95;100926.09;4430955;32;33354;-77
2022/03/10 09:12:59;;;;;;;6.82;3.62;;;;;;;11.06;24.41;100931.13;4443473;32;33733;-78
2022/03/10 09:15:27;;;;;;;12.45;4.20;;;;;;;10.86;23.71;100933.50;4447620;32;33907;-78
2022/03/10 09:17:55;;;;;;;7.37;4.05;;;;;;;10.72;24.56;100936.16;4431183;32;33871;-78
2022/03/10 09:20:22;;;;;;;8.25;3.90;;;;;;;11.16;23.90;100928.13;4443332;32;33833;-78
2022/03/10 09:22:50;;;;;;;8.38;3.87;;;;;;;11.15;23.75;100935.53;4443454;32;33401;-78
2022/03/10 09:25:18;;;;;;;10.93;5.90;;;;;;;11.32;23.32;100928.03;4443679;32;33176;-78
2022/03/10 09:27:48;;;;;;;12.68;6.20;;;;;;;10.98;24.30;100939.44;4443189;32;34045;-78
2022/03/10 09:30:16;;;;;;;7.30;3.55;;;;;;;10.91;23.39;100926.62;4443608;32;33753;-78
2022/03/10 09:32:44;;;;;;;8.90;3.65;;;;;;;10.98;22.75;100938.59;4443418;32;33713;-78
2022/03/10 09:35:29;;;;;;;7.67;3.73;;;;;;;10.10;23.90;100947.84;4458357;32;34737;-78
2022/03/10 09:37:58;;;;;;;7.25;3.47;;;;;;;11.34;23.94;100947.94;4443497;32;35400;-79
2022/03/10 09:40:26;;;;;;;9.18;4.32;;;;;;;11.71;23.07;100937.97;4456000;32;34032;-78
2022/03/10 09:42:58;;;;;;;15.32;7.87;;;;;;;11.79;22.11;100946.19;4431223;32;32938;-78
2022/03/10 09:45:30;;;;;;;9.98;4.93;;;;;;;11.30;23.00;100934.75;4444351;32;33641;-78
2022/03/10 09:47:58;;;;;;;9.27;4.50;;;;;;;12.02;22.68;100941.50;4443362;32;34345;-78
2022/03/10 09:50:25;;;;;;;8.35;4.35;;;;;;;11.25;22.26;100942.69;4442873;32;33963;-78
2022/03/10 09:52:55;;;;;;;7.68;3.92;;;;;;;10.71;22.82;100957.25;4443620;32;34238;-78
2022/03/10 09:55:23;;;;;;;8.93;4.03;;;;;;;11.38;22.21;100943.78;4443194;32;34061;-79
2022/03/10 09:57:53;;;;;;;10.25;4.00;;;;;;;11.49;21.94;100942.50;4443252;32;34242;-79
2022/03/10 10:00:20;;;;;;;7.95;3.75;;;;;;;12.33;21.56;100941.34;4455966;32;34036;-78
2022/03/10 10:02:49;;;;;;;8.02;3.70;;;;;;;12.56;21.03;100943.09;4443313;32;33824;-78
2022/03/10 10:05:28;;;;;;;6.65;3.67;;;;;;;12.40;20.87;100939.50;4441730;32;33766;-79
2022/03/10 10:08:00;;;;;;;7.32;3.75;;;;;;;12.75;20.91;100940.62;4455538;32;34614;-79
2022/03/10 10:10:29;;;;;;;7.35;3.65;;;;;;;12.74;20.12;100944.41;4469469;32;34062;-75
2022/03/10 10:13:08;;;;;;;12.27;3.92;;;;;;;12.67;20.50;100945.37;4445155;32;33589;-75
2022/03/10 10:15:40;;;;;;;10.23;4.62;;;;;;;12.49;20.17;100943.00;4456097;32;33713;-76
2022/03/10 10:18:14;;;;;;;19.45;5.93;;;;;;;12.84;22.69;100958.75;4455889;32;34275;-79
2022/03/10 10:21:04;;;;;;;7.82;4.12;;;;;;;13.26;19.63;100957.12;4434231;32;33407;-78
2022/03/10 10:23:37;;;;;;;9.45;3.92;;;;;;;14.08;20.12;100948.31;4442926;32;33485;-79
2022/03/10 10:26:09;;;;;;;8.50;3.90;;;;;;;14.15;19.26;100950.06;4443091;32;33514;-79
2022/03/10 10:28:38;;;;;;;7.53;3.45;;;;;;;14.65;19.12;100955.50;4455519;32;33857;-79
2022/03/10 10:31:17;;;;;;;6.87;3.83;;;;;;;14.10;17.66;100973.81;4455400;32;32624;-78
2022/03/10 10:34:14;;;;;;;7.47;3.35;;;;;;;13.61;18.38;100955.37;4442816;32;32323;-78
2022/03/10 10:36:43;;;;;;;12.10;3.70;;;;;;;13.89;17.65;100955.37;4439791;32;33948;-79
2022/03/10 10:39:13;;;;;;;9.55;3.25;;;;;;;13.62;17.64;100951.56;4443141;32;35214;-78
2022/03/10 10:41:45;;;;;;;13.82;7.72;;;;;;;13.21;17.93;100954.09;4443043;32;34738;-79
2022/03/10 10:44:20;;;;;;;8.38;4.53;;;;;;;13.38;18.14;100952.81;4442641;32;31877;-78
2022/03/10 10:46:49;;;;;;;8.85;4.10;;;;;;;13.07;17.64;100944.78;4442455;32;32340;-79
2022/03/10 10:49:20;;;;;;;6.60;3.25;;;;;;;13.55;17.72;100950.66;4455439;32;35367;-79
2022/03/10 10:51:50;;;;;;;9.18;5.30;;;;;;;13.42;17.42;100943.09;4442558;32;33687;-79
2022/03/10 10:54:18;;;;;;;10.52;7.65;;;;;;;13.97;17.28;100954.38;4455384;32;34316;-80
2022/03/10 10:56:49;;;;;;;13.38;10.45;;;;;;;13.89;16.73;100952.63;4426025;32;138215;-79
2022/03/10 10:59:30;;;;;;;26.20;21.37;;;;;;;13.54;16.95;100959.97;4440148;32;34094;-79
2022/03/10 11:02:12;;;;;;;12.80;10.90;;;;;;;13.88;17.08;100953.69;4445466;32;34721;-78
2022/03/10 11:04:42;;;;;;;17.58;6.40;;;;;;;14.26;17.18;100958.84;4444555;32;33641;-78
2022/03/10 11:07:11;;;;;;;7.62;4.30;;;;;;;14.25;17.12;100973.72;4431834;32;32215;-79
2022/03/10 11:09:40;;;;;;;8.73;3.35;;;;;;;13.82;16.09;100965.50;4457501;32;35146;-79
2022/03/10 11:12:13;;;;;;;7.95;3.95;;;;;;;14.16;16.67;100957.31;4444318;32;33817;-79
2022/03/10 11:14:42;;;;;;;5.47;2.58;;;;;;;14.52;16.45;100959.03;4444351;32;32003;-79
2022/03/10 11:17:12;;;;;;;8.60;3.25;;;;;;;14.52;16.13;100953.50;4444319;32;33674;-79
2022/03/10 11:19:48;;;;;;;6.65;3.60;;;;;;;14.95;16.94;100943.06;4457265;32;34507;-79
2022/03/10 11:22:28;;;;;;;7.23;3.90;;;;;;;14.42;16.73;100948.34;4444142;32;33277;-80
2022/03/10 11:25:33;;;;;;;6.95;3.65;;;;;;;13.97;18.27;100941.44;4444147;32;32101;-79
2022/03/10 11:28:11;;;;;;;7.37;3.95;;;;;;;12.98;18.50;100958.91;4444503;32;34017;-78
2022/03/10 11:30:58;;;;;;;8.40;3.35;;;;;;;13.78;18.16;100940.22;4446036;32;34364;-78
2022/03/10 11:33:30;;;;;;;6.03;3.20;;;;;;;14.21;17.70;100944.81;4444425;32;34079;-79
2022/03/10 11:35:58;;;;;;;7.62;3.12;;;;;;;14.26;17.34;100936.78;4457225;32;33498;-79
2022/03/10 11:38:49;;;;;;;10.13;6.85;;;;;;;14.81;17.25;100936.66;4444588;32;34458;-79
2022/03/10 11:41:17;;;;;;;9.23;6.00;;;;;;;14.59;17.30;100937.81;4444086;32;34423;-80
2022/03/10 11:44:00;;;;;;;29.98;18.23;;;;;;;13.90;16.67;100937.78;4444307;32;33895;-79
2022/03/10 11:46:30;;;;;;;14.23;7.35;;;;;;;13.83;17.72;100936.88;4457218;32;33687;-79